Time;durP1;ratioP1;P1;durP2;ratioP2;P2;SDS_P1;SDS_P2;PMS_P1;PMS_P2;Temp;Humidity;BMP_temperature;BMP_pressure;BME280_temperature;BME280_humidity;BME280_pressure;Samples;Min_cycle;Max_cycle;Signal;HPM_P1;HPM_P2
2022/05/09 00:02:08;;;;;;;;;;;;;;;9.48;75.36;101580.78;6238206;23;20276;-86
2022/05/09 00:04:36;;;;;;;;;;;;;;;9.43;75.20;101574.94;6238410;23;19938;-87
2022/05/09 00:07:01;;;;;;;;;;;;;;;9.37;75.32;101578.16;6212490;23;19935;-87
2022/05/09 00:09:31;;;;;;;;;;;;;;;9.42;75.26;101583.16;6186293;22;19963;-88
2022/05/09 00:11:58;;;;;;;;;;;;;;;9.35;75.49;101587.34;6237718;23;19934;-92
2022/05/09 00:14:23;;;;;;;;;;;;;;;9.35;75.30;101587.34;6236028;23;19915;-89
2022/05/09 00:16:51;;;;;;;;;;;;;;;9.31;75.38;101584.03;6241377;23;19931;-88
2022/05/09 00:19:17;;;;;;;;;;;;;;;9.26;75.77;101586.28;6236778;23;19916;-87
2022/05/09 00:21:43;;;;;;;;;;;;;;;9.29;75.62;101586.00;6210009;23;19920;-88
2022/05/09 00:24:12;;;;;;;;;;;;;;;9.24;75.95;101591.75;6186307;23;19994;-85
2022/05/09 00:26:38;;;;;;;;;;;;;;;9.26;75.72;101592.50;6212606;23;19967;-86
2022/05/09 00:29:04;;;;;;;;;;;;;;;9.18;76.14;101588.78;6211802;22;19916;-85
2022/05/09 00:31:32;;;;;;;;;;;;;;;9.09;76.54;101588.53;6209764;22;20318;-87
2022/05/09 00:33:58;;;;;;;;;;;;;;;9.12;76.19;101589.28;6211313;23;19919;-86
2022/05/09 00:36:25;;;;;;;;;;;;;;;9.12;75.91;101587.44;6237311;23;19922;-86
2022/05/09 00:38:51;;;;;;;;;;;;;;;9.01;76.78;101587.47;6237746;23;19986;-88
2022/05/09 00:41:37;;;;;;;;;;;;;;;8.99;76.77;101584.94;6211894;23;20232;-86
2022/05/09 00:44:05;;;;;;;;;;;;;;;8.92;77.17;101594.47;6238330;23;19911;-86
2022/05/09 00:46:30;;;;;;;;;;;;;;;8.88;77.27;101587.66;6210975;23;19919;-86
2022/05/09 00:48:58;;;;;;;;;;;;;;;8.94;77.00;101588.97;6210585;22;19912;-87
2022/05/09 00:51:29;;;;;;;;;;;;;;;8.91;77.08;101595.44;6214069;23;19911;-91
2022/05/09 00:53:54;;;;;;;;;;;;;;;8.95;76.76;101583.50;6209949;22;19986;-86
2022/05/09 00:56:22;;;;;;;;;;;;;;;8.92;76.78;101594.47;6210779;23;19946;-86
2022/05/09 00:58:50;;;;;;;;;;;;;;;8.87;77.06;101584.13;6211845;23;19915;-87
2022/05/09 01:01:24;;;;;;;;;;;;;;;8.90;77.03;101587.50;6215516;23;19973;-85
2022/05/09 01:03:54;;;;;;;;;;;;;;;8.92;76.75;101574.84;6188576;23;20276;-86
2022/05/09 01:06:20;;;;;;;;;;;;;;;8.85;76.71;101579.88;6187990;23;19912;-87
2022/05/09 01:08:46;;;;;;;;;;;;;;;8.89;76.78;101581.31;6213217;23;20416;-86
2022/05/09 01:11:17;;;;;;;;;;;;;;;8.84;76.98;101572.81;6213328;23;19915;-84
2022/05/09 01:13:46;;;;;;;;;;;;;;;8.79;76.67;101573.19;6239524;23;19947;-85
2022/05/09 01:16:13;;;;;;;;;;;;;;;8.76;77.11;101565.41;6213034;23;19998;-85
2022/05/09 01:18:38;;;;;;;;;;;;;;;8.75;76.96;101570.88;6211694;22;19935;-86
2022/05/09 01:21:24;;;;;;;;;;;;;;;8.77;76.82;101567.09;6211754;23;19920;-86
2022/05/09 01:23:52;;;;;;;;;;;;;;;8.75;77.29;101568.19;6201441;22;19994;-86
2022/05/09 01:26:19;;;;;;;;;;;;;;;8.78;76.69;101563.44;6211933;23;19954;-85
2022/05/09 01:28:44;;;;;;;;;;;;;;;8.73;76.67;101571.00;6211838;23;19912;-85
2022/05/09 01:31:13;;;;;;;;;;;;;;;8.70;76.75;101573.09;6211269;23;19919;-86
2022/05/09 01:33:42;;;;;;;;;;;;;;;8.70;76.92;101575.78;6211657;23;19915;-85
2022/05/09 01:36:15;;;;;;;;;;;;;;;8.62;77.06;101574.56;6238617;23;20009;-84
2022/05/09 01:38:43;;;;;;;;;;;;;;;8.63;76.97;101570.91;6211921;23;19919;-85
2022/05/09 01:41:12;;;;;;;;;;;;;;;8.65;76.73;101566.28;6212173;22;19946;-85
2022/05/09 01:43:40;;;;;;;;;;;;;;;8.66;76.75;101575.16;6211901;23;19912;-88
2022/05/09 01:46:07;;;;;;;;;;;;;;;8.62;77.03;101569.22;6211868;23;20070;-86
2022/05/09 01:51:20;;;;;;;;;;;;;;;8.51;77.08;101563.88;6238525;23;20059;-86
2022/05/09 01:53:52;;;;;;;;;;;;;;;8.56;76.88;101567.03;6213032;23;19994;-85
2022/05/09 01:56:24;;;;;;;;;;;;;;;8.58;76.62;101567.75;6215724;22;19914;-87
2022/05/09 01:58:51;;;;;;;;;;;;;;;8.46;77.18;101568.78;6212010;23;19926;-86
2022/05/09 02:01:21;;;;;;;;;;;;;;;8.41;77.23;101576.34;6212360;23;19943;-86
2022/05/09 02:03:46;;;;;;;;;;;;;;;8.47;76.88;101574.97;6212199;23;19977;-85
2022/05/09 02:06:15;;;;;;;;;;;;;;;8.50;76.48;101570.22;6237381;23;19915;-86
2022/05/09 02:08:40;;;;;;;;;;;;;;;8.42;76.61;101565.47;6210869;23;19915;-88
2022/05/09 02:11:06;;;;;;;;;;;;;;;8.41;76.92;101563.78;6238120;23;20000;-83
2022/05/09 02:13:31;;;;;;;;;;;;;;;8.37;77.05;101561.44;6242984;23;19919;-83
2022/05/09 02:15:59;;;;;;;;;;;;;;;8.31;77.14;101562.81;6242304;23;19931;-86
2022/05/09 02:18:25;;;;;;;;;;;;;;;8.27;77.48;101558.66;6212534;22;20420;-86
2022/05/09 02:20:53;;;;;;;;;;;;;;;8.20;77.48;101566.34;6237885;23;19912;-85
2022/05/09 02:23:19;;;;;;;;;;;;;;;8.15;77.59;101570.38;6211311;23;19924;-85
2022/05/09 02:25:46;;;;;;;;;;;;;;;8.12;77.46;101568.75;6210434;23;20192;-85
2022/05/09 02:28:12;;;;;;;;;;;;;;;8.07;77.48;101568.28;6211667;23;19912;-86
2022/05/09 02:30:40;;;;;;;;;;;;;;;8.08;77.46;101563.78;6208944;23;19922;-89
2022/05/09 02:33:18;;;;;;;;;;;;;;;8.02;77.45;101568.66;6211228;22;19911;-85
2022/05/09 02:35:47;;;;;;;;;;;;;;;8.03;77.42;101558.81;6211925;23;20002;-87
2022/05/09 02:38:12;;;;;;;;;;;;;;;8.08;76.86;101563.78;6237360;23;19922;-85
2022/05/09 02:40:37;;;;;;;;;;;;;;;7.96;77.49;101562.94;6238018;22;19923;-87
2022/05/09 02:43:03;;;;;;;;;;;;;;;7.99;77.25;101565.38;6237076;22;19958;-86
2022/05/09 02:45:29;;;;;;;;;;;;;;;7.88;77.59;101557.34;6186581;22;20344;-88
2022/05/09 02:47:55;;;;;;;;;;;;;;;7.87;77.50;101567.22;6237666;23;20339;-87
2022/05/09 02:50:21;;;;;;;;;;;;;;;7.77;77.80;101556.38;6210977;23;19960;-85
2022/05/09 02:52:50;;;;;;;;;;;;;;;7.73;78.08;101562.09;6216703;23;19915;-84
2022/05/09 02:55:17;;;;;;;;;;;;;;;7.74;77.98;101561.09;6250128;23;19912;-83
2022/05/09 02:57:43;;;;;;;;;;;;;;;7.77;77.86;101569.75;6197930;23;19911;-84
2022/05/09 03:00:13;;;;;;;;;;;;;;;7.76;77.85;101570.72;6241206;23;19919;-85
2022/05/09 03:02:38;;;;;;;;;;;;;;;7.76;77.78;101573.41;6237983;23;19924;-87
2022/05/09 03:05:04;;;;;;;;;;;;;;;7.75;77.85;101576.19;6236553;23;19998;-85
2022/05/09 03:07:30;;;;;;;;;;;;;;;7.72;77.81;101577.28;6211277;22;19916;-86
2022/05/09 03:09:56;;;;;;;;;;;;;;;7.76;77.82;101575.22;6237301;23;19916;-85
2022/05/09 03:12:22;;;;;;;;;;;;;;;7.77;77.66;101579.59;6214016;22;19939;-87
2022/05/09 03:14:48;;;;;;;;;;;;;;;7.78;77.45;101582.16;6211831;23;19912;-86
2022/05/09 03:17:14;;;;;;;;;;;;;;;7.76;77.50;101586.78;6212662;23;19915;-85
2022/05/09 03:19:41;;;;;;;;;;;;;;;7.71;77.55;101580.94;6236500;23;19916;-87
2022/05/09 03:22:08;;;;;;;;;;;;;;;7.64;77.97;101578.88;6238120;23;19941;-85
2022/05/09 03:25:05;;;;;;;;;;;;;;;7.56;78.15;101584.78;6238731;23;19920;-87
2022/05/09 03:27:34;;;;;;;;;;;;;;;7.51;78.31;101592.34;6242907;23;19920;-85
2022/05/09 03:29:59;;;;;;;;;;;;;;;7.38;78.89;101585.25;6259471;22;19916;-89
2022/05/09 03:32:25;;;;;;;;;;;;;;;7.50;78.44;101591.47;6229883;23;19927;-91
2022/05/09 03:34:54;;;;;;;;;;;;;;;7.56;78.06;101584.78;6224680;23;19924;-90
2022/05/09 03:37:19;;;;;;;;;;;;;;;7.38;78.75;101584.41;6211021;23;19920;-85
2022/05/09 03:39:45;;;;;;;;;;;;;;;7.53;78.20;101590.41;6235616;23;19915;-85
2022/05/09 03:42:13;;;;;;;;;;;;;;;7.53;78.36;101595.75;6237385;23;20244;-88
2022/05/09 03:44:39;;;;;;;;;;;;;;;7.35;78.56;101589.97;6209397;23;19919;-85
2022/05/09 03:47:08;;;;;;;;;;;;;;;7.31;79.12;101597.41;6209745;23;20018;-88
2022/05/09 03:49:36;;;;;;;;;;;;;;;7.38;78.76;101598.63;6235992;23;19916;-86
2022/05/09 03:52:05;;;;;;;;;;;;;;;7.36;78.65;101595.22;6213037;22;19911;-86
2022/05/09 03:54:30;;;;;;;;;;;;;;;7.33;78.81;101605.31;6234822;23;19990;-88
2022/05/09 03:57:02;;;;;;;;;;;;;;;7.39;78.77;101602.16;6234709;23;19939;-89
2022/05/09 03:59:33;;;;;;;;;;;;;;;7.42;78.60;101604.59;6214168;23;19919;-86
2022/05/09 04:01:59;;;;;;;;;;;;;;;7.52;78.14;101602.09;6234880;23;19916;-84
2022/05/09 04:04:24;;;;;;;;;;;;;;;7.55;77.89;101604.50;6183885;22;19916;-88
2022/05/09 04:06:51;;;;;;;;;;;;;;;7.59;77.92;101609.50;6208514;23;19926;-86
2022/05/09 04:09:47;;;;;;;;;;;;;;;7.59;77.80;101606.00;6211616;22;19923;-86
2022/05/09 04:12:17;;;;;;;;;;;;;;;7.79;77.04;101613.31;6211599;22;19911;-87
2022/05/09 04:17:29;;;;;;;;;;;;;;;7.82;77.40;101615.75;6240964;23;20305;-88
2022/05/09 04:19:59;;;;;;;;;;;;;;;7.91;77.36;101610.63;6235356;23;20007;-88
2022/05/09 04:22:28;;;;;;;;;;;;;;;8.01;76.99;101617.84;6210945;23;19981;-86
2022/05/09 04:24:53;;;;;;;;;;;;;;;8.17;76.51;101612.13;6237880;23;19934;-85
2022/05/09 04:27:19;;;;;;;;;;;;;;;8.21;76.53;101616.25;6209657;22;20348;-86
2022/05/09 04:29:47;;;;;;;;;;;;;;;8.24;76.28;101613.34;6211091;23;19907;-84
2022/05/09 04:32:36;;;;;;;;;;;;;;;8.56;75.48;101617.94;6238913;22;20695;-86
2022/05/09 04:35:03;;;;;;;;;;;;;;;8.82;75.65;101612.28;6217222;23;19934;-87
2022/05/09 04:37:39;;;;;;;;;;;;;;;9.62;73.44;101613.63;6242117;23;20395;-89
2022/05/09 04:40:08;;;;;;;;;;;;;;;10.27;69.50;101614.25;6199287;22;19916;-89
2022/05/09 04:42:34;;;;;;;;;;;;;;;10.89;69.78;101606.97;6191464;23;19912;-88
2022/05/09 04:44:59;;;;;;;;;;;;;;;11.43;67.20;101610.94;6213294;23;19938;-87
2022/05/09 04:47:26;;;;;;;;;;;;;;;11.88;65.37;101610.28;6211688;23;19922;-86
2022/05/09 04:50:00;;;;;;;;;;;;;;;12.28;63.79;101611.84;6211765;23;19918;-87
2022/05/09 04:52:25;;;;;;;;;;;;;;;12.69;61.68;101620.44;6212292;23;19912;-88
2022/05/09 04:54:54;;;;;;;;;;;;;;;12.82;60.09;101615.50;6212769;22;20110;-87
2022/05/09 04:57:22;;;;;;;;;;;;;;;12.76;60.00;101617.97;6211239;22;19912;-88
2022/05/09 04:59:49;;;;;;;;;;;;;;;13.09;60.45;101619.16;6237326;23;19916;-87
2022/05/09 05:02:15;;;;;;;;;;;;;;;13.17;59.79;101613.84;6208881;23;19930;-84
2022/05/09 05:04:42;;;;;;;;;;;;;;;13.21;59.71;101625.19;6184791;22;20305;-89
2022/05/09 05:07:10;;;;;;;;;;;;;;;13.22;59.75;101622.31;6211005;23;19915;-85
2022/05/09 05:09:35;;;;;;;;;;;;;;;13.42;59.04;101614.94;6207064;23;19927;-84
2022/05/09 05:12:04;;;;;;;;;;;;;;;13.76;58.70;101621.44;6207775;23;19920;-87
2022/05/09 05:14:30;;;;;;;;;;;;;;;13.87;58.98;101624.72;6208917;23;19912;-85
2022/05/09 05:16:59;;;;;;;;;;;;;;;14.10;58.10;101621.47;6208275;23;19916;-88
2022/05/09 05:19:31;;;;;;;;;;;;;;;14.36;56.47;101618.72;6186945;23;19916;-85
2022/05/09 05:21:58;;;;;;;;;;;;;;;14.77;55.95;101622.47;6212803;22;19986;-85
2022/05/09 05:24:24;;;;;;;;;;;;;;;15.11;54.57;101620.66;6186529;23;19948;-88
2022/05/09 05:26:52;;;;;;;;;;;;;;;15.06;54.99;101623.88;6211094;22;19943;-89
2022/05/09 05:29:18;;;;;;;;;;;;;;;15.34;54.55;101632.53;6236167;23;19915;-84
2022/05/09 05:31:47;;;;;;;;;;;;;;;15.73;53.66;101626.47;6236459;22;20396;-84
2022/05/09 05:34:14;;;;;;;;;;;;;;;15.95;53.02;101621.34;6237581;23;19923;-84
2022/05/09 05:36:40;;;;;;;;;;;;;;;16.24;52.05;101629.72;6239743;23;19912;-85
2022/05/09 05:39:13;;;;;;;;;;;;;;;16.63;51.18;101634.31;6235757;23;19991;-86
2022/05/09 05:41:39;;;;;;;;;;;;;;;16.87;50.53;101632.53;6239525;23;19920;-86
2022/05/09 05:44:11;;;;;;;;;;;;;;;16.82;51.50;101643.09;6227462;23;19942;-86
2022/05/09 05:46:39;;;;;;;;;;;;;;;17.15;50.96;101638.28;6224488;23;20003;-87
2022/05/09 05:49:04;;;;;;;;;;;;;;;17.61;49.07;101634.72;6228417;23;19916;-88
2022/05/09 05:51:30;;;;;;;;;;;;;;;17.84;48.69;101630.09;6210517;23;19999;-86
2022/05/09 05:54:15;;;;;;;;;;;;;;;17.98;48.10;101638.44;6215407;23;19920;-85
2022/05/09 05:57:03;;;;;;;;;;;;;;;18.04;47.79;101637.72;6258548;22;19989;-89
2022/05/09 05:59:36;;;;;;;;;;;;;;;17.87;48.37;101643.31;6251242;22;19911;-88
2022/05/09 06:02:27;;;;;;;;;;;;;;;18.38;47.25;101644.47;6237371;23;19967;-88
2022/05/09 06:04:55;;;;;;;;;;;;;;;18.66;47.13;101645.50;6234250;23;19920;-86
2022/05/09 06:07:26;;;;;;;;;;;;;;;18.58;46.53;101650.19;6213582;23;19924;-90
2022/05/09 06:12:28;;;;;;;;;;;;;;;19.30;44.89;101644.75;6186845;22;19924;-85
2022/05/09 06:17:40;;;;;;;;;;;;;;;19.31;45.09;101651.03;6189976;23;20090;-84
2022/05/09 06:20:07;;;;;;;;;;;;;;;19.55;44.26;101645.22;6156723;23;19982;-85
2022/05/09 06:22:38;;;;;;;;;;;;;;;19.61;44.03;101649.84;6182088;23;19923;-83
2022/05/09 06:25:07;;;;;;;;;;;;;;;19.45;44.18;101652.84;6155965;23;19919;-83
2022/05/09 06:27:33;;;;;;;;;;;;;;;19.68;44.56;101662.72;6180470;23;20312;-84
2022/05/09 06:30:11;;;;;;;;;;;;;;;19.31;44.41;101668.25;6180887;22;20007;-85
2022/05/09 06:32:40;;;;;;;;;;;;;;;19.01;45.06;101666.66;6182595;22;19911;-85
2022/05/09 06:35:09;;;;;;;;;;;;;;;18.82;45.90;101658.06;6156825;23;19923;-87
2022/05/09 06:37:36;;;;;;;;;;;;;;;18.66;44.81;101661.84;6209348;23;20364;-79
2022/05/09 06:40:02;;;;;;;;;;;;;;;18.90;44.77;101665.28;6158053;23;19916;-82
2022/05/09 06:42:28;;;;;;;;;;;;;;;18.72;45.09;101661.06;6180948;23;20060;-82
2022/05/09 06:44:54;;;;;;;;;;;;;;;18.97;44.50;101666.22;6207764;23;19951;-82
2022/05/09 06:47:24;;;;;;;;;;;;;;;19.12;45.96;101667.00;6181720;23;19935;-80
2022/05/09 06:49:49;;;;;;;;;;;;;;;18.40;45.29;101666.91;6208790;23;19912;-82
2022/05/09 06:52:14;;;;;;;;;;;;;;;18.75;44.28;101662.53;6155579;23;19927;-84
2022/05/09 06:54:41;;;;;;;;;;;;;;;18.92;43.18;101664.06;6180223;23;20021;-85
2022/05/09 06:57:11;;;;;;;;;;;;;;;19.25;43.94;101665.47;6180785;23;19916;-83
2022/05/09 06:59:41;;;;;;;;;;;;;;;19.13;42.41;101667.88;6208511;23;19969;-84
2022/05/09 07:02:12;;;;;;;;;;;;;;;18.92;41.08;101674.13;6182237;23;19919;-83
2022/05/09 07:04:38;;;;;;;;;;;;;;;19.09;42.21;101667.41;6155912;23;20288;-83
2022/05/09 07:07:05;;;;;;;;;;;;;;;19.03;42.03;101679.06;6157853;23;19953;-81
2022/05/09 07:09:37;;;;;;;;;;;;;;;19.05;39.56;101674.25;6208183;23;19936;-82
2022/05/09 07:12:06;;;;;;;;;;;;;;;19.49;38.63;101675.97;6207264;22;19920;-81
2022/05/09 07:14:32;;;;;;;;;;;;;;;19.71;39.15;101674.09;6155003;23;19981;-82
2022/05/09 07:17:00;;;;;;;;;;;;;;;19.49;39.43;101678.72;6157332;23;20383;-82
2022/05/09 07:19:27;;;;;;;;;;;;;;;20.04;38.81;101678.97;6205869;22;20709;-81
2022/05/09 07:21:53;;;;;;;;;;;;;;;20.07;38.38;101680.50;6181429;23;20336;-79
2022/05/09 07:24:19;;;;;;;;;;;;;;;19.78;38.85;101688.66;6181421;23;19916;-81
2022/05/09 07:26:44;;;;;;;;;;;;;;;19.71;37.38;101682.28;6175428;23;19926;-82
2022/05/09 07:29:09;;;;;;;;;;;;;;;19.43;38.78;101692.28;6176944;23;19915;-82
2022/05/09 07:31:35;;;;;;;;;;;;;;;20.02;36.68;101690.13;6173975;23;19912;-80
2022/05/09 07:34:01;;;;;;;;;;;;;;;19.71;36.99;101695.09;6180702;23;19923;-80
2022/05/09 07:36:27;;;;;;;;;;;;;;;20.06;35.99;101686.97;6156635;23;19998;-81
2022/05/09 07:38:52;;;;;;;;;;;;;;;20.23;35.62;101688.38;6208796;22;19965;-81
2022/05/09 07:41:17;;;;;;;;;;;;;;;19.51;33.64;101693.00;6208879;23;19916;-81
2022/05/09 07:43:43;;;;;;;;;;;;;;;19.15;38.93;101690.28;6181592;23;19919;-80
2022/05/09 07:46:09;;;;;;;;;;;;;;;19.23;35.67;101689.34;6207532;23;19918;-80
2022/05/09 07:48:38;;;;;;;;;;;;;;;19.00;35.87;101690.34;6208954;23;19912;-80
2022/05/09 07:51:03;;;;;;;;;;;;;;;19.37;39.41;101696.63;6188095;23;19912;-80
2022/05/09 07:53:30;;;;;;;;;;;;;;;19.69;38.77;101694.44;6182308;23;19976;-80
2022/05/09 07:56:00;;;;;;;;;;;;;;;20.31;36.44;101690.94;6182015;23;20216;-79
2022/05/09 07:58:25;;;;;;;;;;;;;;;20.40;36.10;101695.19;6181020;23;20318;-79
2022/05/09 08:00:51;;;;;;;;;;;;;;;20.44;36.46;101693.75;6181403;23;19912;-84
2022/05/09 08:03:20;;;;;;;;;;;;;;;21.24;37.47;101696.00;6208521;23;19912;-80
2022/05/09 08:05:46;;;;;;;;;;;;;;;21.52;36.32;101698.63;6206214;23;19924;-79
2022/05/09 08:08:12;;;;;;;;;;;;;;;22.01;34.63;101711.06;6181385;23;19916;-79
2022/05/09 08:10:38;;;;;;;;;;;;;;;22.43;32.32;101692.50;6181773;23;19946;-79
2022/05/09 08:13:04;;;;;;;;;;;;;;;22.06;32.71;101700.31;6181389;23;20399;-81
2022/05/09 08:15:31;;;;;;;;;;;;;;;22.90;32.20;101695.91;6181914;23;20264;-81
2022/05/09 08:17:58;;;;;;;;;;;;;;;22.47;33.64;101690.16;6208515;23;19912;-79
2022/05/09 08:20:24;;;;;;;;;;;;;;;22.63;31.71;101694.31;6181982;23;20340;-83
2022/05/09 08:23:00;;;;;;;;;;;;;;;22.95;30.54;101696.09;6156918;22;19943;-80
2022/05/09 08:25:27;;;;;;;;;;;;;;;22.53;32.96;101690.13;6181590;23;20362;-79
2022/05/09 08:27:54;;;;;;;;;;;;;;;22.98;30.37;101703.03;6181748;22;19918;-80
2022/05/09 08:30:19;;;;;;;;;;;;;;;22.53;30.92;101695.59;6208515;23;19943;-81
2022/05/09 08:32:44;;;;;;;;;;;;;;;22.46;32.09;101693.97;6207859;23;19923;-81
2022/05/09 08:35:15;;;;;;;;;;;;;;;22.86;29.81;101689.16;6208438;23;20189;-81
2022/05/09 08:37:43;;;;;;;;;;;;;;;23.05;31.63;101692.91;6180934;23;19911;-81
2022/05/09 08:40:09;;;;;;;;;;;;;;;22.87;30.02;101695.47;6181799;23;20351;-81
2022/05/09 08:43:09;;;;;;;;;;;;;;;23.36;29.16;101693.97;6182024;23;19924;-82
2022/05/09 08:45:39;;;;;;;;;;;;;;;23.77;29.08;101696.25;6158532;23;19947;-79
2022/05/09 08:48:25;;;;;;;;;;;;;;;24.02;27.48;101693.50;6180749;23;19912;-79
2022/05/09 08:51:09;;;;;;;;;;;;;;;24.55;28.31;101694.88;6182057;22;19912;-83
2022/05/09 08:53:35;;;;;;;;;;;;;;;24.85;25.78;101700.44;6208402;23;19972;-81
2022/05/09 08:56:01;;;;;;;;;;;;;;;26.03;25.54;101700.00;6156911;23;19916;-81
2022/05/09 08:58:41;;;;;;;;;;;;;;;26.63;25.81;101685.13;6181423;23;20011;-81
2022/05/09 09:01:18;;;;;;;;;;;;;;;26.84;24.47;101691.91;6181740;23;19989;-79
2022/05/09 09:03:54;;;;;;;;;;;;;;;26.73;24.17;101702.72;6208257;23;19920;-81
2022/05/09 09:06:36;;;;;;;;;;;;;;;27.74;24.14;101699.38;6181674;23;19912;-81
2022/05/09 09:09:20;;;;;;;;;;;;;;;26.92;24.30;101691.50;6208348;23;19923;-82
2022/05/09 09:12:04;;;;;;;;;;;;;;;26.40;26.41;101703.34;6181312;23;20374;-81
2022/05/09 09:14:48;;;;;;;;;;;;;;;26.65;24.50;101694.84;6208404;23;19916;-81
2022/05/09 09:17:50;;;;;;;;;;;;;;;27.38;23.95;101695.19;6182341;22;19978;-81
2022/05/09 09:20:22;;;;;;;;;;;;;;;26.25;25.82;101698.34;6208575;23;19980;-81
2022/05/09 09:22:48;;;;;;;;;;;;;;;26.05;25.03;101697.84;6183810;23;19943;-79
2022/05/09 09:25:20;;;;;;;;;;;;;;;26.31;25.14;101694.59;6208468;23;19915;-84
2022/05/09 09:27:46;;;;;;;;;;;;;;;26.54;23.40;101692.94;6178234;23;19919;-82
2022/05/09 09:30:33;;;;;;;;;;;;;;;26.72;25.64;101695.53;6156651;23;20248;-81
2022/05/09 09:33:06;;;;;;;;;;;;;;;27.08;24.97;101699.00;6183772;22;19918;-80
2022/05/09 09:35:35;;;;;;;;;;;;;;;26.80;24.61;101693.47;6182459;22;19972;-78
2022/05/09 09:38:20;;;;;;;;;;;;;;;27.56;24.15;101689.44;6210866;23;19961;-82
2022/05/09 09:40:45;;;;;;;;;;;;;;;25.85;25.21;101693.50;6210577;23;20275;-78
2022/05/09 09:43:10;;;;;;;;;;;;;;;25.93;25.84;101702.53;6182114;23;19923;-83
2022/05/09 09:45:36;;;;;;;;;;;;;;;26.20;26.48;101689.09;6184190;23;20314;-80
2022/05/09 09:48:07;;;;;;;;;;;;;;;25.83;26.99;101687.38;6184579;23;19968;-80
2022/05/09 09:50:32;;;;;;;;;;;;;;;25.04;27.47;101684.75;6210401;23;20351;-87
2022/05/09 09:52:59;;;;;;;;;;;;;;;26.33;28.13;101681.41;6209301;23;19916;-79
2022/05/09 09:55:25;;;;;;;;;;;;;;;26.10;27.48;101684.19;6207444;22;19945;-80
2022/05/09 09:57:53;;;;;;;;;;;;;;;26.24;27.58;101684.78;6208504;23;19911;-86
2022/05/09 10:00:20;;;;;;;;;;;;;;;26.67;27.67;101678.88;6182414;23;20348;-77
2022/05/09 10:02:46;;;;;;;;;;;;;;;26.70;27.75;101678.38;6207969;23;19991;-80
2022/05/09 10:05:13;;;;;;;;;;;;;;;27.30;27.11;101676.25;6180749;23;19912;-79
2022/05/09 10:07:43;;;;;;;;;;;;;;;27.47;26.98;101681.81;6156402;23;20011;-79
2022/05/09 10:10:14;;;;;;;;;;;;;;;27.84;27.04;101679.44;6182125;22;19947;-83
2022/05/09 10:12:40;;;;;;;;;;;;;;;27.80;26.93;101667.16;6210832;23;19956;-79
2022/05/09 10:15:25;;;;;;;;;;;;;;;28.34;25.82;101678.50;6184039;23;19934;-78
2022/05/09 10:17:51;;;;;;;;;;;;;;;28.16;27.25;101687.09;6183266;23;19912;-85
2022/05/09 10:20:27;;;;;;;;;;;;;;;27.06;27.73;101668.03;6182595;23;19928;-83
2022/05/09 10:25:37;;;;;;;;;;;;;;;28.31;24.47;101681.78;6186849;23;19965;-82
2022/05/09 10:28:06;;;;;;;;;;;;;;;27.69;25.08;101677.19;6182068;23;19912;-82
2022/05/09 10:30:35;;;;;;;;;;;;;;;27.89;24.97;101675.91;6207066;23;19941;-80
2022/05/09 10:33:03;;;;;;;;;;;;;;;27.94;25.53;101679.56;6208141;23;19912;-85
2022/05/09 10:35:35;;;;;;;;;;;;;;;27.31;27.53;101680.69;6205964;23;19935;-83
2022/05/09 10:38:01;;;;;;;;;;;;;;;26.84;26.59;101683.63;6181392;23;19923;-82
2022/05/09 10:40:41;;;;;;;;;;;;;;;26.88;27.15;101685.66;6207364;23;19916;-80
2022/05/09 10:43:16;;;;;;;;;;;;;;;26.19;27.44;101688.25;6154855;23;19911;-79
2022/05/09 10:45:46;;;;;;;;;;;;;;;26.29;28.22;101685.75;6205416;23;20281;-80
2022/05/09 10:48:20;;;;;;;;;;;;;;;27.41;26.89;101683.63;6178825;23;20019;-80
2022/05/09 10:50:49;;;;;;;;;;;;;;;26.80;28.42;101682.44;6179388;23;19912;-82
2022/05/09 10:53:33;;;;;;;;;;;;;;;27.35;27.63;101690.16;6179081;23;19912;-82
2022/05/09 10:56:17;;;;;;;;;;;;;;;25.14;28.98;101681.44;6205662;23;19923;-82
2022/05/09 10:59:02;;;;;;;;;;;;;;;26.41;28.22;101693.16;6179663;23;19916;-81
2022/05/09 11:01:30;;;;;;;;;;;;;;;24.92;30.75;101681.13;6180539;23;19991;-82
2022/05/09 11:03:55;;;;;;;;;;;;;;;24.30;31.56;101685.84;6181303;23;19912;-83
2022/05/09 11:06:21;;;;;;;;;;;;;;;25.28;30.08;101693.97;6180880;23;19990;-83
2022/05/09 11:08:46;;;;;;;;;;;;;;;25.86;30.27;101691.59;6181120;23;19949;-80
2022/05/09 11:11:14;;;;;;;;;;;;;;;25.76;29.70;101692.19;6208547;23;19937;-79
2022/05/09 11:13:43;;;;;;;;;;;;;;;26.12;28.86;101693.06;6181735;23;19997;-89
2022/05/09 11:16:12;;;;;;;;;;;;;;;25.59;29.44;101688.41;6208157;23;20316;-87
2022/05/09 11:18:37;;;;;;;;;;;;;;;25.72;29.06;101685.47;6209163;23;19912;-84
2022/05/09 11:21:11;;;;;;;;;;;;;;;24.90;30.42;101677.75;6215125;23;19923;-85
2022/05/09 11:23:57;;;;;;;;;;;;;;;25.72;29.90;101690.13;6207129;23;19912;-81
2022/05/09 11:26:28;;;;;;;;;;;;;;;25.05;29.60;101680.06;6160748;23;19912;-81
2022/05/09 11:29:00;;;;;;;;;;;;;;;24.35;30.23;101685.97;6205169;23;20290;-83
2022/05/09 11:31:45;;;;;;;;;;;;;;;23.86;30.71;101687.72;6177839;23;19920;-78
2022/05/09 11:34:21;;;;;;;;;;;;;;;23.18;32.92;101692.84;6178517;22;19952;-82
2022/05/09 11:36:59;;;;;;;;;;;;;;;23.79;32.03;101677.66;6204895;23;19916;-88
2022/05/09 11:39:44;;;;;;;;;;;;;;;23.73;31.96;101678.50;6177605;23;20302;-82
2022/05/09 11:45:16;;;;;;;;;;;;;;;21.85;34.86;101684.94;6215526;23;20316;-83
2022/05/09 11:48:03;;;;;;;;;;;;;;;21.78;35.45;101675.06;6206475;23;20418;-86
2022/05/09 11:50:39;;;;;;;;;;;;;;;21.08;37.08;101675.34;6180006;23;19912;-83
2022/05/09 11:53:05;;;;;;;;;;;;;;;21.36;36.96;101682.56;6181219;23;19995;-87
2022/05/09 11:55:30;;;;;;;;;;;;;;;20.73;38.16;101678.16;6181146;23;20420;-84
2022/05/09 11:57:58;;;;;;;;;;;;;;;20.09;40.18;101675.66;6206867;23;20263;-81
2022/05/09 12:00:33;;;;;;;;;;;;;;;20.01;39.58;101673.91;6180814;22;19969;-81
2022/05/09 12:02:59;;;;;;;;;;;;;;;19.98;40.20;101675.16;6207909;23;19912;-80
2022/05/09 12:05:25;;;;;;;;;;;;;;;20.49;38.86;101673.19;6180876;23;20313;-85
2022/05/09 12:07:54;;;;;;;;;;;;;;;19.67;40.42;101669.22;6207057;23;19912;-77
2022/05/09 12:10:20;;;;;;;;;;;;;;;19.51;40.76;101668.44;6207548;23;19908;-77
2022/05/09 12:12:49;;;;;;;;;;;;;;;19.66;39.92;101664.78;6179790;23;19924;-79
2022/05/09 12:15:14;;;;;;;;;;;;;;;19.45;40.52;101655.59;6155561;23;19986;-81
2022/05/09 12:17:40;;;;;;;;;;;;;;;19.60;40.62;101659.09;6205865;23;19993;-80
2022/05/09 12:20:28;;;;;;;;;;;;;;;19.38;40.37;101657.41;6154031;23;19995;-77
2022/05/09 12:22:57;;;;;;;;;;;;;;;19.23;40.08;101653.91;6161195;23;19975;-78
2022/05/09 12:25:41;;;;;;;;;;;;;;;18.86;40.65;101653.09;6207292;23;20002;-78
2022/05/09 12:28:18;;;;;;;;;;;;;;;19.06;40.84;101651.44;6180893;23;20225;-78
2022/05/09 12:30:56;;;;;;;;;;;;;;;19.25;40.93;101647.22;6206266;23;19916;-80
2022/05/09 12:33:31;;;;;;;;;;;;;;;18.90;41.47;101643.50;6206330;23;19991;-83
2022/05/09 12:35:59;;;;;;;;;;;;;;;18.50;41.91;101643.81;6206757;23;19942;-81
2022/05/09 12:38:26;;;;;;;;;;;;;;;18.81;41.00;101645.47;6180256;23;19992;-84
2022/05/09 12:40:59;;;;;;;;;;;;;;;18.16;42.22;101635.38;6206011;22;19992;-81
2022/05/09 12:43:25;;;;;;;;;;;;;;;18.49;41.07;101633.09;6203409;23;20374;-79
2022/05/09 12:45:50;;;;;;;;;;;;;;;17.79;42.05;101640.63;6180834;23;19912;-80
2022/05/09 12:48:16;;;;;;;;;;;;;;;17.56;43.07;101631.69;6179880;23;20295;-79
2022/05/09 12:50:44;;;;;;;;;;;;;;;17.16;43.98;101628.25;6180957;23;20210;-79
2022/05/09 12:53:12;;;;;;;;;;;;;;;17.18;43.99;101631.66;6179501;23;19916;-79
2022/05/09 12:55:56;;;;;;;;;;;;;;;17.23;44.25;101629.22;6181669;23;20320;-78
2022/05/09 12:58:22;;;;;;;;;;;;;;;17.04;44.05;101631.41;6185488;23;19915;-79
2022/05/09 13:00:49;;;;;;;;;;;;;;;16.72;45.00;101616.13;6180878;23;19981;-79
2022/05/09 13:03:15;;;;;;;;;;;;;;;16.51;44.55;101608.59;6208169;23;19965;-79
2022/05/09 13:05:41;;;;;;;;;;;;;;;16.66;44.66;101622.25;6207768;23;19916;-81
2022/05/09 13:08:07;;;;;;;;;;;;;;;16.79;44.19;101616.28;6180138;23;19940;-79
2022/05/09 13:10:32;;;;;;;;;;;;;;;16.80;43.71;101620.69;6206677;23;19912;-81